Time;durP1;ratioP1;P1;durP2;ratioP2;P2;SDS_P1;SDS_P2;PMS_P1;PMS_P2;Temp;Humidity;BMP_temperature;BMP_pressure;BME280_temperature;BME280_humidity;BME280_pressure;Samples;Min_cycle;Max_cycle;Signal;HPM_P1;HPM_P2
2022/07/31 00:01:40;;;;;;;7.55;4.80;;;;;;;17.87;87.08;101093.88;6050525;28;20025;-65
2022/07/31 00:04:35;;;;;;;5.67;4.43;;;;;;;17.77;87.76;101089.59;6051720;28;20033;-65
2022/07/31 00:07:30;;;;;;;9.53;4.90;;;;;;;17.72;87.86;101092.00;6050255;28;20037;-64
2022/07/31 00:10:25;;;;;;;10.00;4.90;;;;;;;17.74;88.37;101079.28;6050363;28;20026;-64
2022/07/31 00:13:21;;;;;;;6.23;4.90;;;;;;;17.76;88.38;101093.31;6051151;28;20050;-65
2022/07/31 00:16:16;;;;;;;6.13;4.60;;;;;;;17.74;88.03;101084.63;6051080;28;20041;-65
2022/07/31 00:19:11;;;;;;;9.73;4.90;;;;;;;17.89;87.78;101091.84;6051150;28;20044;-65
2022/07/31 00:22:07;;;;;;;6.63;4.87;;;;;;;17.76;88.01;101089.81;6049532;28;20433;-64
2022/07/31 00:25:02;;;;;;;9.37;4.77;;;;;;;17.83;88.41;101104.13;6050803;28;20033;-65
2022/07/31 00:27:57;;;;;;;7.05;4.88;;;;;;;17.71;87.84;101095.72;6050695;28;20033;-65
2022/07/31 00:30:53;;;;;;;8.23;4.93;;;;;;;17.61;88.27;101097.81;6050161;28;20018;-65
2022/07/31 00:33:48;;;;;;;7.47;5.10;;;;;;;17.71;88.64;101117.19;6050805;28;20285;-65
2022/07/31 00:36:43;;;;;;;7.20;5.00;;;;;;;17.61;89.01;101105.06;6049930;28;20159;-65
2022/07/31 00:39:39;;;;;;;9.27;4.97;;;;;;;17.62;88.92;101099.50;6050882;28;20299;-63
2022/07/31 00:42:35;;;;;;;7.20;4.90;;;;;;;17.66;88.59;101110.69;6049611;28;20034;-65
2022/07/31 00:45:30;;;;;;;9.95;4.95;;;;;;;17.87;88.57;101116.19;6050479;28;20021;-63
2022/07/31 00:48:25;;;;;;;8.07;4.93;;;;;;;17.67;88.02;101113.19;6050640;28;20026;-64
2022/07/31 00:51:20;;;;;;;8.27;4.70;;;;;;;17.73;88.06;101098.22;6049068;28;20075;-65
2022/07/31 00:54:16;;;;;;;6.47;4.67;;;;;;;17.52;88.51;101098.91;6050394;28;20032;-65
2022/07/31 00:57:11;;;;;;;10.63;5.10;;;;;;;17.55;89.43;101117.34;6049931;28;20024;-65
2022/07/31 01:00:07;;;;;;;9.17;4.93;;;;;;;17.41;89.76;101104.69;6049834;28;20021;-64
2022/07/31 01:03:03;;;;;;;8.70;5.30;;;;;;;17.45;90.45;101115.91;6049763;28;20034;-64
2022/07/31 01:05:58;;;;;;;9.15;5.15;;;;;;;17.30;90.77;101109.63;6049449;28;20505;-64
2022/07/31 01:08:54;;;;;;;9.53;4.90;;;;;;;17.28;91.21;101107.16;6049353;28;20048;-65
2022/07/31 01:11:59;;;;;;;7.37;4.57;;;;;;;17.30;91.50;101121.19;6049145;28;20034;-65
2022/07/31 01:14:57;;;;;;;7.75;5.05;;;;;;;17.24;91.74;101113.88;6049591;28;20087;-65
2022/07/31 01:17:53;;;;;;;8.00;5.68;;;;;;;17.23;91.80;101112.19;6049138;28;20479;-65
2022/07/31 01:20:48;;;;;;;8.85;5.05;;;;;;;17.28;91.88;101104.47;6048862;28;20034;-64
2022/07/31 01:24:03;;;;;;;8.35;5.13;;;;;;;17.26;91.67;101117.19;6048445;28;20034;-65
2022/07/31 01:27:02;;;;;;;8.30;5.40;;;;;;;17.24;91.70;101119.22;6043829;28;20638;-65
2022/07/31 01:30:00;;;;;;;9.80;5.10;;;;;;;17.22;92.30;101115.91;6048641;28;20041;-65
2022/07/31 01:32:57;;;;;;;9.30;5.40;;;;;;;17.20;92.40;101124.09;6048451;28;20116;-64
2022/07/31 01:36:03;;;;;;;9.77;5.72;;;;;;;17.23;92.16;101128.28;6048146;28;20058;-65
2022/07/31 01:38:58;;;;;;;7.93;4.85;;;;;;;17.13;92.87;101123.16;6049758;28;20412;-64
2022/07/31 01:41:54;;;;;;;10.07;5.40;;;;;;;17.18;92.46;101126.13;6047413;28;20084;-65
2022/07/31 01:44:52;;;;;;;6.90;4.50;;;;;;;17.27;91.84;101111.69;6048322;28;20022;-63
2022/07/31 01:47:48;;;;;;;9.07;5.20;;;;;;;17.42;91.43;101122.44;6064053;28;20026;-64
2022/07/31 01:50:46;;;;;;;7.70;5.22;;;;;;;17.13;91.44;101114.28;6047346;28;20049;-65
2022/07/31 01:53:44;;;;;;;6.75;4.43;;;;;;;17.32;91.84;101123.69;6049291;28;20146;-64
2022/07/31 01:56:39;;;;;;;8.60;4.43;;;;;;;17.19;92.11;101110.91;6048376;28;20109;-65
2022/07/31 01:59:36;;;;;;;7.63;4.65;;;;;;;17.33;91.58;101107.44;6049416;28;20032;-63
2022/07/31 02:02:31;;;;;;;7.95;5.00;;;;;;;17.12;91.24;101118.81;6063356;28;20113;-65
2022/07/31 02:05:27;;;;;;;6.88;4.60;;;;;;;17.13;91.97;101114.28;6047750;28;20083;-64
2022/07/31 02:08:23;;;;;;;9.77;5.13;;;;;;;17.14;91.79;101113.28;6047653;28;20389;-64
2022/07/31 02:11:20;;;;;;;8.90;4.40;;;;;;;17.06;92.63;101116.88;6063726;28;20029;-63
2022/07/31 02:14:16;;;;;;;7.10;5.05;;;;;;;16.92;92.49;101103.38;6049109;28;20326;-63
2022/07/31 02:17:12;;;;;;;12.98;5.43;;;;;;;17.01;93.32;101115.72;6048962;28;20029;-65
2022/07/31 02:20:09;;;;;;;7.15;4.88;;;;;;;16.76;92.63;101107.00;6046889;28;20034;-65
2022/07/31 02:23:05;;;;;;;10.05;5.45;;;;;;;16.66;93.03;101115.25;6046582;28;20029;-63
2022/07/31 02:26:02;;;;;;;9.45;5.07;;;;;;;16.47;94.15;101115.63;6052196;28;20038;-64
2022/07/31 02:28:58;;;;;;;9.07;4.97;;;;;;;16.37;94.94;101107.00;6052321;28;20131;-64
2022/07/31 02:31:55;;;;;;;7.60;5.40;;;;;;;16.41;95.38;101094.09;6051957;28;20026;-65
2022/07/31 02:34:51;;;;;;;7.82;5.22;;;;;;;16.75;96.20;101108.00;6068153;28;20080;-65
2022/07/31 02:37:49;;;;;;;10.00;5.72;;;;;;;16.78;94.30;101104.97;6051319;28;20025;-65
2022/07/31 02:40:45;;;;;;;11.38;5.72;;;;;;;16.56;93.69;101106.59;6042365;28;20110;-65
2022/07/31 02:43:40;;;;;;;11.10;5.30;;;;;;;16.76;94.78;101098.13;6052586;28;20373;-64
2022/07/31 02:46:36;;;;;;;10.07;5.47;;;;;;;17.37;93.63;101106.06;6051912;28;20032;-63
2022/07/31 02:49:32;;;;;;;9.77;6.00;;;;;;;17.40;91.98;101084.25;6052711;28;20273;-64
2022/07/31 02:52:28;;;;;;;9.25;5.30;;;;;;;17.25;91.85;101091.44;6052513;28;20113;-65
2022/07/31 02:55:23;;;;;;;10.20;5.67;;;;;;;17.35;91.15;101100.03;6066675;28;20040;-65
2022/07/31 02:58:18;;;;;;;10.68;6.13;;;;;;;16.82;91.32;101084.88;6050672;28;20356;-63
2022/07/31 03:01:14;;;;;;;8.53;5.40;;;;;;;16.58;92.66;101088.50;6052170;28;20373;-64
2022/07/31 03:04:09;;;;;;;7.87;4.93;;;;;;;16.30;93.72;101098.00;6052270;28;20445;-64
2022/07/31 03:07:04;;;;;;;11.17;5.83;;;;;;;16.21;94.63;101109.72;6052705;28;20492;-65
2022/07/31 03:09:59;;;;;;;7.93;5.83;;;;;;;15.99;95.01;101107.78;6052085;28;20038;-64
2022/07/31 03:12:56;;;;;;;11.10;6.40;;;;;;;16.00;96.09;101094.25;6051711;28;20104;-65
2022/07/31 03:15:53;;;;;;;12.63;6.55;;;;;;;16.14;96.48;101092.72;6052249;28;20030;-64
2022/07/31 03:18:48;;;;;;;8.63;6.35;;;;;;;16.10;97.15;101102.06;6051323;28;20026;-64
2022/07/31 03:21:44;;;;;;;13.13;7.57;;;;;;;15.98;96.93;101092.75;6067159;28;20102;-65
2022/07/31 03:24:39;;;;;;;12.95;7.15;;;;;;;16.16;98.12;101085.34;6051905;28;20049;-64
2022/07/31 03:27:34;;;;;;;11.47;7.73;;;;;;;16.04;97.65;101095.56;6041959;28;20038;-64
2022/07/31 03:30:30;;;;;;;12.70;7.50;;;;;;;16.40;98.49;101097.78;6051810;28;20026;-64
2022/07/31 03:33:25;;;;;;;15.90;9.43;;;;;;;16.16;98.10;101095.19;6051630;28;20056;-63
2022/07/31 03:36:21;;;;;;;13.82;9.77;;;;;;;16.33;98.07;101097.66;6052210;28;20061;-65
2022/07/31 03:39:16;;;;;;;14.35;8.77;;;;;;;16.60;97.58;101083.81;6051588;28;20112;-64
2022/07/31 03:42:12;;;;;;;18.93;10.23;;;;;;;16.39;96.46;101078.19;6050718;28;20106;-65
2022/07/31 03:45:08;;;;;;;15.18;10.40;;;;;;;16.23;97.13;101074.75;6051655;28;20030;-64
2022/07/31 03:48:04;;;;;;;17.35;11.27;;;;;;;16.36;96.73;101073.19;6051321;28;20025;-65
2022/07/31 03:51:00;;;;;;;20.90;11.15;;;;;;;16.19;97.22;101078.81;6051471;28;20054;-65
2022/07/31 03:53:56;;;;;;;17.23;11.15;;;;;;;16.11;98.14;101085.03;6051338;28;20040;-64
2022/07/31 03:56:53;;;;;;;17.85;11.45;;;;;;;16.00;98.62;101086.22;6050799;28;20772;-65
2022/07/31 03:59:49;;;;;;;18.08;12.05;;;;;;;15.98;98.98;101084.75;6066515;28;20095;-64
2022/07/31 04:02:45;;;;;;;17.00;11.35;;;;;;;16.12;98.99;101094.69;6050207;28;20046;-65
2022/07/31 04:05:40;;;;;;;20.83;11.85;;;;;;;16.04;98.86;101076.00;6051590;28;20034;-65
2022/07/31 04:08:36;;;;;;;18.70;11.60;;;;;;;16.09;98.73;101095.88;6051011;28;20026;-64
2022/07/31 04:11:31;;;;;;;18.07;10.73;;;;;;;16.07;98.58;101081.00;6050025;28;20034;-65
2022/07/31 04:14:26;;;;;;;16.65;9.63;;;;;;;16.41;98.54;101086.91;6050731;28;20052;-63
2022/07/31 04:17:22;;;;;;;16.33;9.73;;;;;;;16.37;96.78;101087.41;6050546;28;20077;-63
2022/07/31 04:20:18;;;;;;;14.00;9.23;;;;;;;16.65;95.89;101097.53;6050677;28;20025;-65
2022/07/31 04:23:13;;;;;;;15.00;9.48;;;;;;;16.84;95.00;101087.38;6050607;28;20467;-65
2022/07/31 04:26:09;;;;;;;15.03;9.47;;;;;;;16.86;93.90;101093.38;6050778;28;20080;-63
2022/07/31 04:29:04;;;;;;;16.70;10.00;;;;;;;16.92;93.19;101104.22;6050778;28;20728;-64
2022/07/31 04:31:59;;;;;;;14.13;9.53;;;;;;;16.68;93.81;101096.34;6049621;28;20037;-63
2022/07/31 04:34:55;;;;;;;15.20;10.10;;;;;;;16.64;94.34;101106.56;6050702;28;20132;-65
2022/07/31 04:37:50;;;;;;;12.87;8.37;;;;;;;16.81;94.93;101101.94;6050091;28;20369;-65
2022/07/31 04:40:45;;;;;;;13.83;9.90;;;;;;;16.83;93.44;101091.88;6050039;28;20041;-63
2022/07/31 04:43:40;;;;;;;15.43;9.73;;;;;;;17.15;92.18;101082.78;6049256;28;20029;-65
2022/07/31 04:46:36;;;;;;;12.27;8.67;;;;;;;17.25;91.23;101099.47;6049857;28;20037;-63
2022/07/31 04:49:32;;;;;;;13.43;8.77;;;;;;;17.25;90.69;101094.94;6050584;28;20018;-65
2022/07/31 04:52:27;;;;;;;13.05;8.15;;;;;;;17.37;90.10;101079.25;6045720;28;20049;-65
2022/07/31 04:55:23;;;;;;;16.43;9.47;;;;;;;17.24;90.44;101093.25;6049160;28;20033;-65
2022/07/31 04:58:18;;;;;;;15.45;8.77;;;;;;;17.19;90.10;101092.97;6049275;28;20033;-65
2022/07/31 05:01:13;;;;;;;15.53;8.33;;;;;;;17.12;91.46;101099.25;6048701;28;20029;-65
2022/07/31 05:04:09;;;;;;;11.17;7.47;;;;;;;17.22;91.51;101107.88;6050322;28;20025;-63
2022/07/31 05:07:04;;;;;;;17.27;7.93;;;;;;;17.57;89.65;101099.22;6048963;28;20551;-65
2022/07/31 05:09:59;;;;;;;13.97;8.43;;;;;;;17.44;89.00;101109.69;6049780;28;20697;-65
2022/07/31 05:12:55;;;;;;;14.20;6.63;;;;;;;17.71;88.78;101100.25;6049517;28;20062;-65
2022/07/31 05:15:50;;;;;;;11.10;6.90;;;;;;;17.83;88.55;101110.34;6049377;28;20422;-64
2022/07/31 05:18:46;;;;;;;12.30;7.75;;;;;;;17.68;87.36;101117.56;6050110;28;20026;-65
2022/07/31 05:21:42;;;;;;;12.25;6.80;;;;;;;17.69;87.84;101123.75;6048931;28;20029;-65
2022/07/31 05:24:39;;;;;;;14.85;7.60;;;;;;;17.72;88.58;101113.47;6049340;28;20033;-64
2022/07/31 05:27:34;;;;;;;10.30;7.05;;;;;;;17.59;87.59;101113.28;6049460;28;20484;-65
2022/07/31 05:30:29;;;;;;;13.87;7.37;;;;;;;17.68;88.54;101111.34;6048756;28;20033;-64
2022/07/31 05:33:25;;;;;;;11.27;7.17;;;;;;;17.64;87.30;101118.91;6049492;28;20080;-64
2022/07/31 05:36:20;;;;;;;10.98;6.32;;;;;;;17.79;87.79;101103.69;6048559;28;20280;-65
2022/07/31 05:39:18;;;;;;;12.50;7.60;;;;;;;17.54;87.40;101099.56;6048755;28;20050;-64
2022/07/31 05:42:14;;;;;;;13.27;7.00;;;;;;;17.67;87.73;101082.84;6049115;28;20026;-64
2022/07/31 05:45:09;;;;;;;14.27;7.83;;;;;;;17.76;87.26;101097.84;6049099;28;20045;-63
2022/07/31 05:48:05;;;;;;;11.45;7.05;;;;;;;17.76;87.01;101097.84;6049674;28;20480;-63
2022/07/31 05:51:00;;;;;;;13.15;7.15;;;;;;;17.81;86.70;101090.09;6047406;28;20830;-65
2022/07/31 05:53:55;;;;;;;12.83;7.67;;;;;;;17.98;86.06;101077.31;6049130;28;20017;-65
2022/07/31 05:56:51;;;;;;;12.77;7.17;;;;;;;18.32;84.26;101078.41;6050817;28;20029;-63
2022/07/31 05:59:46;;;;;;;13.63;7.37;;;;;;;18.53;83.67;101085.75;6053689;28;20403;-64
2022/07/31 06:02:41;;;;;;;10.87;7.30;;;;;;;18.61;82.97;101077.56;6053667;28;20030;-63
2022/07/31 06:05:38;;;;;;;12.27;7.90;;;;;;;18.63;82.15;101080.06;6053054;28;20131;-65
2022/07/31 06:08:33;;;;;;;10.13;6.28;;;;;;;18.60;82.87;101083.94;6053982;28;20033;-65
2022/07/31 06:11:28;;;;;;;15.97;7.53;;;;;;;18.74;82.21;101083.09;6053110;28;20029;-63
2022/07/31 06:14:24;;;;;;;12.07;7.50;;;;;;;18.92;81.15;101091.53;6053337;28;20285;-64
2022/07/31 06:17:19;;;;;;;14.77;8.57;;;;;;;18.75;81.34;101092.00;6054121;28;20137;-63
2022/07/31 06:20:14;;;;;;;12.43;7.43;;;;;;;18.78;81.78;101100.47;6052728;28;20026;-63
2022/07/31 06:23:10;;;;;;;13.70;7.77;;;;;;;19.05;80.72;101090.03;6052713;28;20026;-63
2022/07/31 06:26:05;;;;;;;13.60;7.45;;;;;;;18.68;81.58;101091.91;6053657;28;20060;-64
2022/07/31 06:29:01;;;;;;;13.73;7.87;;;;;;;18.60;81.42;101078.59;6053405;28;20026;-65
2022/07/31 06:31:56;;;;;;;11.37;6.83;;;;;;;18.50;81.82;101080.75;6052888;28;20612;-64
2022/07/31 06:34:51;;;;;;;9.57;6.73;;;;;;;18.65;81.19;101075.31;6053355;28;20288;-65
2022/07/31 06:37:46;;;;;;;10.13;6.23;;;;;;;18.89;81.08;101081.16;6053439;28;20377;-64
2022/07/31 06:40:42;;;;;;;12.83;6.83;;;;;;;18.82;79.96;101074.91;6052478;28;20030;-64
2022/07/31 06:43:37;;;;;;;11.23;6.50;;;;;;;18.96;79.86;101070.50;6052890;28;20034;-62
2022/07/31 06:46:32;;;;;;;12.23;6.53;;;;;;;19.24;79.04;101084.81;6053300;28;20068;-65
2022/07/31 06:49:28;;;;;;;11.93;6.65;;;;;;;19.30;78.89;101077.84;6054223;28;20108;-65
2022/07/31 06:52:23;;;;;;;10.23;6.73;;;;;;;19.14;79.24;101078.94;6052382;28;20033;-63
2022/07/31 06:55:18;;;;;;;14.17;6.83;;;;;;;19.46;79.02;101078.41;6061611;28;20461;-63
2022/07/31 06:58:14;;;;;;;12.57;6.45;;;;;;;19.62;78.31;101081.88;6054513;28;20030;-63
2022/07/31 07:01:09;;;;;;;15.10;7.83;;;;;;;19.59;78.49;101091.16;6052195;28;20036;-64
2022/07/31 07:04:04;;;;;;;15.93;8.37;;;;;;;19.33;80.21;101080.13;6052225;28;20034;-64
2022/07/31 07:07:00;;;;;;;16.23;9.50;;;;;;;19.47;78.85;101081.94;6051883;28;20296;-63
2022/07/31 07:09:55;;;;;;;12.30;8.73;;;;;;;19.74;78.33;101094.56;6052436;28;20575;-64
2022/07/31 07:12:50;;;;;;;11.23;7.27;;;;;;;20.08;77.57;101081.13;6051419;28;20041;-65
2022/07/31 07:15:46;;;;;;;13.85;8.23;;;;;;;20.13;76.48;101084.06;6051872;28;20088;-65
2022/07/31 07:18:41;;;;;;;14.75;8.13;;;;;;;19.99;76.27;101076.94;6052336;28;20377;-64
2022/07/31 07:21:37;;;;;;;13.73;8.77;;;;;;;19.65;78.49;101071.53;6050938;28;20034;-64
2022/07/31 07:24:33;;;;;;;16.23;9.13;;;;;;;19.70;78.25;101068.25;6052019;28;20429;-63
2022/07/31 07:27:29;;;;;;;15.20;8.18;;;;;;;19.68;79.07;101064.91;6047402;28;20502;-65
2022/07/31 07:30:27;;;;;;;17.80;9.20;;;;;;;19.75;77.89;101055.88;6051292;28;20121;-65
2022/07/31 07:33:22;;;;;;;16.50;7.88;;;;;;;20.09;77.14;101073.88;6051584;28;20907;-64
2022/07/31 07:36:17;;;;;;;15.47;7.53;;;;;;;20.52;75.74;101052.97;6051410;28;20034;-64
2022/07/31 07:39:13;;;;;;;12.47;7.97;;;;;;;20.71;74.57;101062.97;6051937;28;20746;-65
2022/07/31 07:42:08;;;;;;;15.30;8.40;;;;;;;20.77;74.54;101071.06;6051556;28;20022;-64
2022/07/31 07:45:04;;;;;;;14.53;7.47;;;;;;;21.05;73.11;101065.53;6051408;28;20124;-63
2022/07/31 07:47:59;;;;;;;10.05;6.70;;;;;;;21.51;71.66;101067.44;6050850;28;20481;-65
2022/07/31 07:50:55;;;;;;;13.53;6.83;;;;;;;21.62;70.76;101059.56;6050343;28;20074;-63
2022/07/31 07:53:50;;;;;;;14.10;6.90;;;;;;;22.28;67.68;101065.66;6051070;28;20036;-65
2022/07/31 07:56:45;;;;;;;10.70;6.63;;;;;;;22.13;66.92;101059.66;6050644;28;20284;-65
2022/07/31 07:59:41;;;;;;;11.13;6.80;;;;;;;22.43;66.19;101054.56;6051194;28;20029;-64
2022/07/31 08:02:36;;;;;;;8.57;5.38;;;;;;;22.46;65.67;101060.38;6049906;28;20385;-64
2022/07/31 08:05:32;;;;;;;8.85;6.15;;;;;;;22.65;64.05;101047.81;6050448;28;20026;-63
2022/07/31 08:08:27;;;;;;;9.63;5.50;;;;;;;22.69;64.34;101050.94;6051646;28;20508;-63
2022/07/31 08:11:22;;;;;;;7.83;4.30;;;;;;;23.28;64.61;101056.75;6049359;28;20022;-65
2022/07/31 08:14:18;;;;;;;9.18;5.03;;;;;;;23.61;61.19;101053.78;6051227;28;20037;-65
2022/07/31 08:17:13;;;;;;;8.13;4.57;;;;;;;23.44;59.88;101050.81;6050571;28;20026;-65
2022/07/31 08:20:08;;;;;;;10.33;4.77;;;;;;;23.42;59.73;101033.97;6048391;28;20269;-65
2022/07/31 08:23:04;;;;;;;6.47;3.83;;;;;;;23.40;59.98;101046.09;6050732;28;20672;-64
2022/07/31 08:25:59;;;;;;;4.60;3.00;;;;;;;24.00;56.79;101047.13;6051126;28;20327;-65
2022/07/31 08:28:54;;;;;;;5.80;3.60;;;;;;;24.12;57.04;101040.78;6050653;28;20496;-64
2022/07/31 08:31:50;;;;;;;8.73;3.57;;;;;;;24.35;56.17;101037.34;6049932;28;20046;-64
2022/07/31 08:34:45;;;;;;;6.00;3.28;;;;;;;24.76;53.52;101034.69;6050881;28;20064;-65
2022/07/31 08:37:41;;;;;;;5.13;3.00;;;;;;;24.59;54.73;101028.28;6050574;28;20359;-62
2022/07/31 08:40:37;;;;;;;6.95;3.60;;;;;;;24.97;52.62;101044.25;6050271;28;20461;-63
2022/07/31 08:43:32;;;;;;;6.40;3.03;;;;;;;24.26;54.70;101042.28;6050845;28;20048;-64
2022/07/31 08:46:28;;;;;;;6.73;3.57;;;;;;;24.16;56.05;101035.72;6050345;28;20057;-64
2022/07/31 08:49:25;;;;;;;5.30;2.97;;;;;;;24.32;54.17;101024.28;6050567;28;20303;-63
2022/07/31 08:52:24;;;;;;;6.75;3.00;;;;;;;23.71;54.87;101029.72;6049621;28;20472;-64
2022/07/31 08:55:21;;;;;;;6.32;3.03;;;;;;;24.05;54.72;101022.91;6049603;28;20018;-63
2022/07/31 08:58:17;;;;;;;4.85;2.60;;;;;;;24.94;51.83;101022.16;6056909;28;20466;-63
2022/07/31 09:01:13;;;;;;;5.07;2.70;;;;;;;24.48;53.41;101022.81;6049232;28;20465;-64
2022/07/31 09:04:09;;;;;;;6.53;2.75;;;;;;;25.33;51.46;101007.91;6050387;28;20036;-65
2022/07/31 09:07:08;;;;;;;5.13;2.70;;;;;;;26.33;47.17;101001.22;6050101;28;20022;-64
2022/07/31 09:10:24;;;;;;;6.28;2.10;;;;;;;27.09;48.62;100994.44;6032082;28;20065;-65
2022/07/31 09:13:19;;;;;;;6.40;2.55;;;;;;;27.05;45.46;100994.09;6049989;28;20101;-65
2022/07/31 09:16:14;;;;;;;4.97;2.30;;;;;;;27.25;46.14;100993.59;6050247;28;20087;-65
2022/07/31 09:19:10;;;;;;;3.67;2.37;;;;;;;26.16;47.60;100997.59;6048842;28;20351;-65
2022/07/31 09:22:05;;;;;;;4.00;2.10;;;;;;;26.50;43.37;100984.91;6048828;28;20040;-64
2022/07/31 09:25:14;;;;;;;2.67;1.80;;;;;;;26.08;42.74;100988.97;6049646;28;20034;-65
2022/07/31 09:28:10;;;;;;;3.33;2.00;;;;;;;26.42;43.85;100977.16;6049141;28;20026;-64
2022/07/31 09:31:07;;;;;;;5.87;2.40;;;;;;;26.75;44.31;100977.22;6048358;28;20029;-64
2022/07/31 09:34:02;;;;;;;3.20;1.65;;;;;;;27.39;44.15;100972.28;6048683;28;20036;-65
2022/07/31 09:37:08;;;;;;;5.72;2.50;;;;;;;27.39;43.41;100972.28;6049678;28;20025;-65
2022/07/31 09:40:06;;;;;;;5.53;1.92;;;;;;;27.53;41.73;100973.63;6049490;28;20449;-64
2022/07/31 09:43:01;;;;;;;5.22;1.88;;;;;;;27.46;40.79;100978.41;6051790;28;20037;-65
2022/07/31 09:45:58;;;;;;;3.55;2.10;;;;;;;27.30;41.32;100968.34;6049761;28;20457;-64
2022/07/31 09:48:57;;;;;;;5.93;2.10;;;;;;;27.29;39.32;100972.94;6049511;28;20064;-65
2022/07/31 09:51:52;;;;;;;5.22;2.00;;;;;;;27.16;39.46;100973.28;6048824;28;20028;-64
2022/07/31 09:54:47;;;;;;;5.67;2.10;;;;;;;26.86;40.20;100979.06;6049295;28;20373;-66
2022/07/31 09:57:57;;;;;;;3.55;2.10;;;;;;;26.95;40.63;100966.72;6049697;28;20479;-64
2022/07/31 10:00:53;;;;;;;3.47;1.65;;;;;;;27.22;38.68;100966.03;6048365;28;20095;-64
2022/07/31 10:03:50;;;;;;;4.25;1.90;;;;;;;27.13;39.88;100957.44;6049635;28;20034;-65
2022/07/31 10:06:50;;;;;;;3.45;1.80;;;;;;;27.26;39.95;100969.91;6048183;28;20034;-65
2022/07/31 10:09:46;;;;;;;4.00;1.65;;;;;;;27.62;38.44;100951.13;6049214;28;20026;-64
2022/07/31 10:12:46;;;;;;;6.30;1.92;;;;;;;26.81;38.61;100949.06;6049797;28;20030;-65
2022/07/31 10:15:45;;;;;;;3.65;1.42;;;;;;;27.42;38.83;100950.03;6061494;28;20088;-66
2022/07/31 10:18:46;;;;;;;3.17;1.70;;;;;;;27.92;37.21;100945.22;6048086;28;20362;-64
2022/07/31 10:21:48;;;;;;;4.00;2.03;;;;;;;28.54;37.82;100937.47;6048241;28;20535;-65
2022/07/31 10:24:46;;;;;;;4.85;1.75;;;;;;;28.32;37.80;100951.16;6049431;28;20101;-65
2022/07/31 10:27:43;;;;;;;3.40;1.73;;;;;;;28.38;37.84;100938.41;6048848;28;20034;-65
2022/07/31 10:30:38;;;;;;;4.75;1.85;;;;;;;28.35;37.09;100934.28;6048436;28;20117;-66
2022/07/31 10:33:34;;;;;;;2.97;1.90;;;;;;;28.60;37.25;100946.53;6048826;28;20034;-66
2022/07/31 10:36:34;;;;;;;7.75;2.20;;;;;;;26.52;40.66;100928.38;6043718;28;20026;-65
2022/07/31 10:40:02;;;;;;;4.45;1.92;;;;;;;27.91;38.84;100927.22;6047513;28;20049;-65
2022/07/31 10:43:19;;;;;;;3.42;1.70;;;;;;;28.08;38.32;100925.25;6044504;28;20112;-65
2022/07/31 10:46:25;;;;;;;5.70;2.00;;;;;;;27.92;37.39;100912.50;6053242;28;20094;-66
2022/07/31 10:49:38;;;;;;;3.85;2.03;;;;;;;27.17;39.15;100907.69;6052897;28;20042;-64
2022/07/31 10:52:35;;;;;;;3.10;1.70;;;;;;;27.87;38.04;100903.44;6050805;28;20030;-65
2022/07/31 10:55:31;;;;;;;5.32;2.00;;;;;;;28.16;37.61;100905.72;6052458;28;20037;-64
2022/07/31 10:58:26;;;;;;;5.40;1.73;;;;;;;28.50;35.98;100909.06;6067854;28;20381;-64
2022/07/31 11:01:22;;;;;;;5.93;1.70;;;;;;;28.75;34.63;100909.31;6051868;28;20264;-65
2022/07/31 11:04:31;;;;;;;2.92;1.90;;;;;;;28.89;36.50;100905.03;6052970;28;20021;-66
2022/07/31 11:07:26;;;;;;;3.83;1.70;;;;;;;28.70;34.20;100909.25;6052283;28;20068;-66
2022/07/31 11:10:21;;;;;;;4.43;1.80;;;;;;;29.01;33.98;100906.75;6051596;28;20057;-65
2022/07/31 11:13:17;;;;;;;3.90;1.80;;;;;;;28.77;35.47;100898.94;6052476;28;20273;-66
2022/07/31 11:16:12;;;;;;;5.20;1.90;;;;;;;28.48;35.79;100877.66;6052271;28;20469;-65
2022/07/31 11:19:08;;;;;;;6.63;1.83;;;;;;;28.45;37.28;100883.63;6051814;28;20056;-65
2022/07/31 11:22:14;;;;;;;3.15;1.65;;;;;;;28.86;35.44;100880.97;6051263;28;20034;-65
2022/07/31 11:25:11;;;;;;;4.45;1.85;;;;;;;28.76;34.49;100875.44;6046526;28;20040;-66
2022/07/31 11:28:14;;;;;;;6.43;2.22;;;;;;;28.38;36.65;100872.06;6051952;28;20033;-64
2022/07/31 11:31:10;;;;;;;5.15;2.50;;;;;;;28.17;39.19;100882.81;6050707;28;20034;-67
2022/07/31 11:34:05;;;;;;;3.13;1.80;;;;;;;27.94;36.27;100869.44;6051325;28;20100;-64
2022/07/31 11:37:01;;;;;;;3.60;1.70;;;;;;;27.57;37.66;100874.75;6051409;28;20044;-66
2022/07/31 11:39:57;;;;;;;4.13;1.67;;;;;;;27.46;36.31;100866.69;6051889;28;20029;-65
2022/07/31 11:42:53;;;;;;;3.88;1.58;;;;;;;27.20;37.93;100869.03;6046939;28;20414;-64
2022/07/31 11:45:50;;;;;;;6.30;2.15;;;;;;;27.28;35.73;100858.81;6049965;28;20113;-65
2022/07/31 11:48:45;;;;;;;4.10;1.70;;;;;;;27.38;36.29;100861.66;6051580;28;20034;-66
2022/07/31 11:51:41;;;;;;;4.72;2.10;;;;;;;28.16;35.38;100862.06;6050093;28;20048;-67
2022/07/31 11:54:37;;;;;;;4.60;1.73;;;;;;;29.27;33.80;100857.47;6051252;28;20428;-66
2022/07/31 11:57:32;;;;;;;5.57;1.73;;;;;;;29.08;34.50;100856.25;6050420;28;20045;-65
2022/07/31 12:00:27;;;;;;;4.25;1.90;;;;;;;29.29;34.41;100849.88;6050824;28;20045;-65
2022/07/31 12:03:28;;;;;;;4.13;1.92;;;;;;;29.64;34.27;100840.16;6066537;28;20392;-65
2022/07/31 12:06:23;;;;;;;5.50;2.15;;;;;;;28.32;36.60;100836.56;6038901;28;20025;-64
2022/07/31 12:09:20;;;;;;;3.03;1.83;;;;;;;29.28;35.49;100836.44;6050486;28;20103;-65
2022/07/31 12:12:17;;;;;;;3.85;1.60;;;;;;;29.35;34.37;100829.66;6048983;28;20037;-66
2022/07/31 12:15:14;;;;;;;5.13;1.92;;;;;;;29.17;34.66;100821.06;6050502;28;20018;-65
2022/07/31 12:18:10;;;;;;;3.15;2.03;;;;;;;29.07;33.54;100815.56;6050355;28;20032;-65
2022/07/31 12:21:05;;;;;;;2.63;1.77;;;;;;;30.07;33.71;100798.69;6049691;28;20033;-65
2022/07/31 12:24:01;;;;;;;3.63;1.70;;;;;;;30.61;30.81;100794.31;6050305;28;20168;-65
2022/07/31 12:26:59;;;;;;;4.00;2.03;;;;;;;29.65;32.82;100785.19;6050398;28;20359;-64
2022/07/31 12:29:54;;;;;;;5.20;1.80;;;;;;;28.90;33.67;100791.16;6050260;28;20030;-65
2022/07/31 12:32:50;;;;;;;4.17;2.07;;;;;;;29.91;32.71;100786.09;6050339;28;20034;-65
2022/07/31 12:35:46;;;;;;;3.03;1.83;;;;;;;29.75;33.21;100790.69;6050170;28;20280;-66
2022/07/31 12:38:42;;;;;;;3.57;2.10;;;;;;;29.50;33.18;100783.25;6049983;28;20026;-66
2022/07/31 12:41:42;;;;;;;4.40;1.90;;;;;;;29.10;35.10;100774.88;6049186;28;20080;-65
2022/07/31 12:44:46;;;;;;;;;;;;;;;29.36;34.67;100775.81;6050764;28;20026;-64
2022/07/31 12:47:41;;;;;;;2.55;1.55;;;;;;;30.18;33.82;100770.25;6049718;28;19913;-67
2022/07/31 12:50:36;;;;;;;4.97;1.93;;;;;;;30.82;32.02;100758.69;6049483;28;20084;-65
2022/07/31 12:53:32;;;;;;;3.47;2.17;;;;;;;30.36;32.57;100764.22;6050374;28;20335;-66
2022/07/31 12:56:27;;;;;;;2.65;1.80;;;;;;;29.46;33.68;100754.78;6049394;28;20441;-66
2022/07/31 12:59:22;;;;;;;3.17;1.67;;;;;;;29.17;34.82;100760.94;6050448;28;20071;-65
2022/07/31 13:02:17;;;;;;;3.47;1.70;;;;;;;29.01;34.20;100746.41;6049061;28;20034;-67
2022/07/31 13:05:13;;;;;;;4.23;2.13;;;;;;;28.86;35.17;100743.63;6049198;28;20034;-66
2022/07/31 13:08:08;;;;;;;5.03;1.90;;;;;;;29.29;35.32;100740.56;6052476;28;20373;-66
2022/07/31 13:11:03;;;;;;;3.30;2.00;;;;;;;28.41;35.72;100732.38;6050219;28;20030;-65
2022/07/31 13:13:59;;;;;;;4.83;2.00;;;;;;;28.86;35.45;100732.69;6050987;28;20026;-65
2022/07/31 13:16:54;;;;;;;2.80;2.00;;;;;;;29.14;35.48;100735.00;6048040;28;20044;-65
2022/07/31 13:19:49;;;;;;;3.63;2.03;;;;;;;29.15;34.52;100735.81;6048725;28;20044;-64
2022/07/31 13:22:45;;;;;;;3.33;2.17;;;;;;;28.39;35.87;100721.75;6048925;28;20026;-65
2022/07/31 13:25:40;;;;;;;5.32;2.25;;;;;;;28.15;36.49;100728.69;6048500;28;20091;-65
2022/07/31 13:28:35;;;;;;;3.20;2.00;;;;;;;28.10;36.47;100723.97;6048473;28;20049;-67
2022/07/31 13:31:31;;;;;;;4.53;2.23;;;;;;;28.19;37.87;100718.88;6047632;28;20288;-64
2022/07/31 13:34:26;;;;;;;4.75;2.03;;;;;;;28.07;37.67;100705.44;6048704;28;20049;-66
2022/07/31 13:37:22;;;;;;;5.30;2.20;;;;;;;27.94;37.33;100718.66;6048997;28;20029;-65